sensor_id;sensor_type;location;lat;lon;timestamp;pressure;altitude;pressure_sealevel;temperature;humidity
60061;BME280;45933;51.336;12.612;2023-10-09T00:01:42;100372.69;;;14.10;56.97
60061;BME280;45933;51.336;12.612;2023-10-09T00:04:11;100343.88;;;14.10;57.15
60061;BME280;45933;51.336;12.612;2023-10-09T00:06:39;100361.28;;;14.12;56.94
60061;BME280;45933;51.336;12.612;2023-10-09T00:09:08;100380.53;;;14.11;56.94
60061;BME280;45933;51.336;12.612;2023-10-09T00:11:48;100391.88;;;14.12;56.65
60061;BME280;45933;51.336;12.612;2023-10-09T00:14:14;100403.25;;;14.11;56.92
60061;BME280;45933;51.336;12.612;2023-10-09T00:16:41;100398.13;;;14.05;57.01
60061;BME280;45933;51.336;12.612;2023-10-09T00:19:14;100385.00;;;14.05;56.82
60061;BME280;45933;51.336;12.612;2023-10-09T00:21:43;100385.03;;;14.03;57.05
60061;BME280;45933;51.336;12.612;2023-10-09T00:24:09;100388.50;;;14.05;56.94
60061;BME280;45933;51.336;12.612;2023-10-09T00:26:51;100376.28;;;14.04;56.93
60061;BME280;45933;51.336;12.612;2023-10-09T00:29:17;100362.31;;;14.04;56.90
60061;BME280;45933;51.336;12.612;2023-10-09T00:31:53;100365.78;;;14.06;57.00
60061;BME280;45933;51.336;12.612;2023-10-09T00:34:41;100350.97;;;14.03;57.21
60061;BME280;45933;51.336;12.612;2023-10-09T00:37:08;100358.88;;;14.00;56.93
60061;BME280;45933;51.336;12.612;2023-10-09T00:39:47;100354.56;;;13.98;57.23
60061;BME280;45933;51.336;12.612;2023-10-09T00:42:14;100351.94;;;13.98;57.43
60061;BME280;45933;51.336;12.612;2023-10-09T00:45:00;100356.28;;;13.99;57.11
60061;BME280;45933;51.336;12.612;2023-10-09T00:47:30;100351.91;;;13.99;57.32
60061;BME280;45933;51.336;12.612;2023-10-09T00:50:07;100343.06;;;14.05;57.30
60061;BME280;45933;51.336;12.612;2023-10-09T00:52:44;100334.38;;;14.03;57.53
60061;BME280;45933;51.336;12.612;2023-10-09T00:55:18;100325.66;;;14.01;57.33
60061;BME280;45933;51.336;12.612;2023-10-09T00:57:53;100323.00;;;14.02;57.46
60061;BME280;45933;51.336;12.612;2023-10-09T01:00:25;100311.66;;;14.03;57.55
60061;BME280;45933;51.336;12.612;2023-10-09T01:03:17;100301.09;;;14.08;57.42
60061;BME280;45933;51.336;12.612;2023-10-09T01:05:47;100300.25;;;14.06;57.72
60061;BME280;45933;51.336;12.612;2023-10-09T01:08:31;100308.13;;;14.04;57.63
60061;BME280;45933;51.336;12.612;2023-10-09T01:10:58;100304.63;;;14.05;57.77
60061;BME280;45933;51.336;12.612;2023-10-09T01:13:34;100308.06;;;14.07;58.07
60061;BME280;45933;51.336;12.612;2023-10-09T01:16:24;100317.59;;;14.13;57.83
60061;BME280;45933;51.336;12.612;2023-10-09T01:18:55;100314.06;;;14.16;57.77
60061;BME280;45933;51.336;12.612;2023-10-09T01:21:24;100308.00;;;14.13;57.69
60061;BME280;45933;51.336;12.612;2023-10-09T01:23:52;100294.00;;;14.13;57.82
60061;BME280;45933;51.336;12.612;2023-10-09T01:26:40;100291.25;;;14.21;57.57
60061;BME280;45933;51.336;12.612;2023-10-09T01:29:10;100293.09;;;14.16;57.44
60061;BME280;45933;51.336;12.612;2023-10-09T01:31:40;100277.38;;;14.16;57.58
60061;BME280;45933;51.336;12.612;2023-10-09T01:34:12;100266.91;;;14.14;57.66
60061;BME280;45933;51.336;12.612;2023-10-09T01:36:40;100266.06;;;14.13;57.60
60061;BME280;45933;51.336;12.612;2023-10-09T01:39:06;100260.81;;;14.12;57.84
60061;BME280;45933;51.336;12.612;2023-10-09T01:41:35;100256.44;;;14.14;57.76
60061;BME280;45933;51.336;12.612;2023-10-09T01:44:03;100248.59;;;14.11;57.67
60061;BME280;45933;51.336;12.612;2023-10-09T01:46:35;100245.09;;;14.13;57.79
60061;BME280;45933;51.336;12.612;2023-10-09T01:49:00;100234.56;;;14.15;57.78
60061;BME280;45933;51.336;12.612;2023-10-09T01:51:33;100235.47;;;14.14;57.73
60061;BME280;45933;51.336;12.612;2023-10-09T01:54:02;100226.69;;;14.15;57.70
60061;BME280;45933;51.336;12.612;2023-10-09T01:56:27;100230.22;;;14.14;58.19
60061;BME280;45933;51.336;12.612;2023-10-09T01:58:53;100219.72;;;14.12;58.00
60061;BME280;45933;51.336;12.612;2023-10-09T02:01:22;100221.50;;;14.12;58.29
60061;BME280;45933;51.336;12.612;2023-10-09T02:03:47;100208.38;;;14.12;58.29
60061;BME280;45933;51.336;12.612;2023-10-09T02:06:16;100190.06;;;14.10;58.82
60061;BME280;45933;51.336;12.612;2023-10-09T02:08:57;100175.28;;;14.08;58.92
60061;BME280;45933;51.336;12.612;2023-10-09T02:11:22;100182.25;;;14.09;58.58
60061;BME280;45933;51.336;12.612;2023-10-09T02:14:07;100160.53;;;14.01;59.49
60061;BME280;45933;51.336;12.612;2023-10-09T02:16:52;100146.63;;;13.99;59.30
60061;BME280;45933;51.336;12.612;2023-10-09T02:19:30;100154.44;;;14.00;59.32
60061;BME280;45933;51.336;12.612;2023-10-09T02:21:59;100153.72;;;13.92;59.25
60061;BME280;45933;51.336;12.612;2023-10-09T02:24:26;100145.91;;;13.89;59.61
60061;BME280;45933;51.336;12.612;2023-10-09T02:26:53;100136.34;;;13.88;59.71
60061;BME280;45933;51.336;12.612;2023-10-09T02:29:18;100132.03;;;13.84;60.18
60061;BME280;45933;51.336;12.612;2023-10-09T02:31:48;100138.16;;;13.83;60.17
60061;BME280;45933;51.336;12.612;2023-10-09T02:34:19;100135.53;;;13.83;60.69
60061;BME280;45933;51.336;12.612;2023-10-09T02:36:47;100119.88;;;13.81;60.51
60061;BME280;45933;51.336;12.612;2023-10-09T02:39:25;100117.22;;;13.83;60.36
60061;BME280;45933;51.336;12.612;2023-10-09T02:41:55;100115.44;;;13.83;60.75
60061;BME280;45933;51.336;12.612;2023-10-09T02:44:27;100111.88;;;13.86;60.56
60061;BME280;45933;51.336;12.612;2023-10-09T02:46:57;100099.66;;;13.88;60.41
60061;BME280;45933;51.336;12.612;2023-10-09T02:49:24;100111.81;;;13.91;60.89
60061;BME280;45933;51.336;12.612;2023-10-09T02:51:49;100116.16;;;13.93;60.78
60061;BME280;45933;51.336;12.612;2023-10-09T02:54:18;100107.34;;;13.96;60.80
60061;BME280;45933;51.336;12.612;2023-10-09T02:56:48;100095.09;;;13.96;60.80
60061;BME280;45933;51.336;12.612;2023-10-09T02:59:33;100080.19;;;14.00;60.63
60061;BME280;45933;51.336;12.612;2023-10-09T03:01:59;100085.44;;;14.00;60.51
60061;BME280;45933;51.336;12.612;2023-10-09T03:04:27;100101.97;;;14.02;60.33
60061;BME280;45933;51.336;12.612;2023-10-09T03:06:54;100086.25;;;14.02;60.87
60061;BME280;45933;51.336;12.612;2023-10-09T03:09:22;100089.75;;;14.02;60.59
60061;BME280;45933;51.336;12.612;2023-10-09T03:11:56;100083.63;;;14.03;60.94
60061;BME280;45933;51.336;12.612;2023-10-09T03:14:28;100071.38;;;14.04;60.65
60061;BME280;45933;51.336;12.612;2023-10-09T03:16:54;100067.88;;;14.05;60.66
60061;BME280;45933;51.336;12.612;2023-10-09T03:19:19;100071.34;;;14.05;60.46
60061;BME280;45933;51.336;12.612;2023-10-09T03:21:44;100073.97;;;14.05;60.49
60061;BME280;45933;51.336;12.612;2023-10-09T03:24:11;100066.09;;;14.05;60.64
60061;BME280;45933;51.336;12.612;2023-10-09T03:26:37;100068.69;;;14.07;60.94
60061;BME280;45933;51.336;12.612;2023-10-09T03:29:02;100079.22;;;14.05;60.88
60061;BME280;45933;51.336;12.612;2023-10-09T03:31:32;100071.31;;;14.07;60.68
60061;BME280;45933;51.336;12.612;2023-10-09T03:33:59;100064.38;;;14.04;60.67
60061;BME280;45933;51.336;12.612;2023-10-09T03:36:24;100069.63;;;14.04;60.78
60061;BME280;45933;51.336;12.612;2023-10-09T03:38:52;100064.44;;;14.01;60.74
60061;BME280;45933;51.336;12.612;2023-10-09T03:41:19;100056.56;;;14.01;60.62
60061;BME280;45933;51.336;12.612;2023-10-09T03:43:45;100055.66;;;14.02;60.92
60061;BME280;45933;51.336;12.612;2023-10-09T03:46:11;100055.75;;;13.99;60.98
60061;BME280;45933;51.336;12.612;2023-10-09T03:48:47;100049.66;;;13.97;61.50
60061;BME280;45933;51.336;12.612;2023-10-09T03:51:13;100045.31;;;13.98;61.22
60061;BME280;45933;51.336;12.612;2023-10-09T03:53:46;100047.88;;;13.99;61.10
60061;BME280;45933;51.336;12.612;2023-10-09T03:56:12;100052.28;;;13.97;61.11
60061;BME280;45933;51.336;12.612;2023-10-09T03:58:39;100054.00;;;14.00;61.20
60061;BME280;45933;51.336;12.612;2023-10-09T04:01:18;100031.97;;;14.08;61.16
60061;BME280;45933;51.336;12.612;2023-10-09T04:03:54;100033.84;;;14.03;61.47
60061;BME280;45933;51.336;12.612;2023-10-09T04:06:24;100031.97;;;14.08;61.57
60061;BME280;45933;51.336;12.612;2023-10-09T04:09:03;100021.50;;;14.07;61.26
60061;BME280;45933;51.336;12.612;2023-10-09T04:11:48;100015.25;;;14.14;61.47
60061;BME280;45933;51.336;12.612;2023-10-09T04:14:22;100017.03;;;14.12;61.24
60061;BME280;45933;51.336;12.612;2023-10-09T04:17:11;100017.84;;;14.16;61.10
60061;BME280;45933;51.336;12.612;2023-10-09T04:19:54;100011.69;;;14.17;61.33
60061;BME280;45933;51.336;12.612;2023-10-09T04:22:40;100009.94;;;14.17;61.37
60061;BME280;45933;51.336;12.612;2023-10-09T04:25:18;99992.44;;;14.18;61.23
60061;BME280;45933;51.336;12.612;2023-10-09T04:27:55;99991.59;;;14.17;61.28
60061;BME280;45933;51.336;12.612;2023-10-09T04:30:38;99976.72;;;14.18;61.43
60061;BME280;45933;51.336;12.612;2023-10-09T04:33:14;99967.03;;;14.21;61.65
60061;BME280;45933;51.336;12.612;2023-10-09T04:35:55;99984.56;;;14.19;62.23
60061;BME280;45933;51.336;12.612;2023-10-09T04:38:39;99985.34;;;14.23;61.13
60061;BME280;45933;51.336;12.612;2023-10-09T04:41:18;100002.81;;;14.24;62.03
60061;BME280;45933;51.336;12.612;2023-10-09T04:43:52;99986.16;;;14.26;61.75
60061;BME280;45933;51.336;12.612;2023-10-09T04:46:21;99980.84;;;14.29;61.98
60061;BME280;45933;51.336;12.612;2023-10-09T04:48:48;99979.09;;;14.30;62.00
60061;BME280;45933;51.336;12.612;2023-10-09T04:51:17;99975.56;;;14.31;61.83
60061;BME280;45933;51.336;12.612;2023-10-09T04:53:46;99968.56;;;14.31;62.29
60061;BME280;45933;51.336;12.612;2023-10-09T04:56:20;99966.78;;;14.32;62.08
60061;BME280;45933;51.336;12.612;2023-10-09T04:58:49;99951.06;;;14.32;62.20
60061;BME280;45933;51.336;12.612;2023-10-09T05:01:14;99953.63;;;14.33;62.14
60061;BME280;45933;51.336;12.612;2023-10-09T05:03:41;99950.19;;;14.31;62.38
60061;BME280;45933;51.336;12.612;2023-10-09T05:06:07;99940.63;;;14.30;62.58
60061;BME280;45933;51.336;12.612;2023-10-09T05:08:51;99934.56;;;14.27;62.60
60061;BME280;45933;51.336;12.612;2023-10-09T05:11:22;99949.44;;;14.26;62.81
60061;BME280;45933;51.336;12.612;2023-10-09T05:14:18;99963.50;;;14.24;62.62
60061;BME280;45933;51.336;12.612;2023-10-09T05:16:52;99954.81;;;14.20;62.88
60061;BME280;45933;51.336;12.612;2023-10-09T05:19:23;99951.34;;;14.18;63.46
60061;BME280;45933;51.336;12.612;2023-10-09T05:21:59;99951.44;;;14.15;62.94
60061;BME280;45933;51.336;12.612;2023-10-09T05:24:32;99956.72;;;14.13;63.23
60061;BME280;45933;51.336;12.612;2023-10-09T05:27:09;99951.50;;;14.12;63.12
60061;BME280;45933;51.336;12.612;2023-10-09T05:29:42;99937.63;;;14.08;63.23
60061;BME280;45933;51.336;12.612;2023-10-09T05:32:24;99943.78;;;14.06;63.59
60061;BME280;45933;51.336;12.612;2023-10-09T05:35:00;99945.53;;;14.05;63.57
60061;BME280;45933;51.336;12.612;2023-10-09T05:37:30;99949.03;;;14.06;64.03
60061;BME280;45933;51.336;12.612;2023-10-09T05:40:02;99942.97;;;14.04;63.43
60061;BME280;45933;51.336;12.612;2023-10-09T05:42:32;99947.34;;;14.02;63.95
60061;BME280;45933;51.336;12.612;2023-10-09T05:45:10;99944.78;;;14.00;64.20
60061;BME280;45933;51.336;12.612;2023-10-09T05:47:52;99948.25;;;14.01;64.22
60061;BME280;45933;51.336;12.612;2023-10-09T05:50:36;99957.84;;;14.02;64.45
60061;BME280;45933;51.336;12.612;2023-10-09T05:53:24;99960.44;;;14.03;64.46
60061;BME280;45933;51.336;12.612;2023-10-09T05:56:09;99949.91;;;14.05;64.54
60061;BME280;45933;51.336;12.612;2023-10-09T05:58:53;99948.16;;;14.05;64.83
60061;BME280;45933;51.336;12.612;2023-10-09T06:01:36;99946.34;;;14.07;64.68
60061;BME280;45933;51.336;12.612;2023-10-09T06:04:20;99949.03;;;14.06;64.90
60061;BME280;45933;51.336;12.612;2023-10-09T06:06:46;99960.38;;;14.06;65.10
60061;BME280;45933;51.336;12.612;2023-10-09T06:09:20;99950.81;;;14.04;65.55
60061;BME280;45933;51.336;12.612;2023-10-09T06:11:46;99947.25;;;14.06;65.27
60061;BME280;45933;51.336;12.612;2023-10-09T06:14:12;99946.44;;;14.04;65.73
60061;BME280;45933;51.336;12.612;2023-10-09T06:16:42;99956.75;;;14.12;65.86
60061;BME280;45933;51.336;12.612;2023-10-09T06:19:12;99959.41;;;14.10;65.49
60061;BME280;45933;51.336;12.612;2023-10-09T06:21:41;99972.41;;;14.15;66.16
60061;BME280;45933;51.336;12.612;2023-10-09T06:24:19;99969.84;;;14.13;65.80
60061;BME280;45933;51.336;12.612;2023-10-09T06:26:46;99971.56;;;14.15;66.19
60061;BME280;45933;51.336;12.612;2023-10-09T06:29:33;99976.75;;;14.16;66.41
60061;BME280;45933;51.336;12.612;2023-10-09T06:32:18;99977.56;;;14.18;67.11
60061;BME280;45933;51.336;12.612;2023-10-09T06:35:03;99972.09;;;14.29;66.24
60061;BME280;45933;51.336;12.612;2023-10-09T06:37:49;99979.22;;;14.24;66.62
60061;BME280;45933;51.336;12.612;2023-10-09T06:40:38;99976.59;;;14.24;66.56
60061;BME280;45933;51.336;12.612;2023-10-09T06:43:23;99967.03;;;14.21;67.08
60061;BME280;45933;51.336;12.612;2023-10-09T06:45:49;99974.03;;;14.21;67.58
60061;BME280;45933;51.336;12.612;2023-10-09T06:48:24;99974.84;;;14.23;67.45
60061;BME280;45933;51.336;12.612;2023-10-09T06:51:09;99978.31;;;14.25;67.78
60061;BME280;45933;51.336;12.612;2023-10-09T06:53:43;99979.09;;;14.28;67.87
60061;BME280;45933;51.336;12.612;2023-10-09T06:56:26;99989.53;;;14.31;69.01
60061;BME280;45933;51.336;12.612;2023-10-09T06:58:54;99981.66;;;14.31;67.98
60061;BME280;45933;51.336;12.612;2023-10-09T07:01:21;99988.59;;;14.34;68.33
60061;BME280;45933;51.336;12.612;2023-10-09T07:03:53;99999.84;;;14.39;67.93
60061;BME280;45933;51.336;12.612;2023-10-09T07:06:20;100001.53;;;14.42;68.30
60061;BME280;45933;51.336;12.612;2023-10-09T07:08:54;99997.97;;;14.46;67.88
60061;BME280;45933;51.336;12.612;2023-10-09T07:11:32;99999.56;;;14.53;68.17
60061;BME280;45933;51.336;12.612;2023-10-09T07:14:13;100008.19;;;14.58;68.49
60061;BME280;45933;51.336;12.612;2023-10-09T07:19:29;100025.41;;;14.70;68.43
60061;BME280;45933;51.336;12.612;2023-10-09T07:22:11;100014.09;;;14.68;69.27
60061;BME280;45933;51.336;12.612;2023-10-09T07:24:45;100014.84;;;14.73;68.24
60061;BME280;45933;51.336;12.612;2023-10-09T07:27:39;100018.25;;;14.76;67.80
60061;BME280;45933;51.336;12.612;2023-10-09T07:30:10;100005.22;;;14.73;68.82
60061;BME280;45933;51.336;12.612;2023-10-09T07:33:03;100006.00;;;14.77;68.50
60061;BME280;45933;51.336;12.612;2023-10-09T07:35:42;100009.41;;;14.80;68.73
60061;BME280;45933;51.336;12.612;2023-10-09T07:38:09;100020.75;;;14.82;68.81
60061;BME280;45933;51.336;12.612;2023-10-09T07:40:35;100023.38;;;14.82;69.21
60061;BME280;45933;51.336;12.612;2023-10-09T07:43:20;100024.97;;;14.88;68.81
60061;BME280;45933;51.336;12.612;2023-10-09T07:45:51;100015.41;;;14.85;69.52
60061;BME280;45933;51.336;12.612;2023-10-09T07:48:39;100031.78;;;14.95;68.92
60061;BME280;45933;51.336;12.612;2023-10-09T07:51:17;100021.25;;;14.98;68.80
60061;BME280;45933;51.336;12.612;2023-10-09T07:53:45;100033.41;;;15.01;68.63
60061;BME280;45933;51.336;12.612;2023-10-09T07:56:11;100046.47;;;15.04;69.03
60061;BME280;45933;51.336;12.612;2023-10-09T07:58:39;100048.09;;;15.08;68.83
60061;BME280;45933;51.336;12.612;2023-10-09T08:01:14;100046.31;;;15.10;68.82
60061;BME280;45933;51.336;12.612;2023-10-09T08:04:00;100047.13;;;15.12;68.67
60061;BME280;45933;51.336;12.612;2023-10-09T08:06:39;100061.06;;;15.15;68.74
60061;BME280;45933;51.336;12.612;2023-10-09T08:09:09;100055.69;;;15.20;69.04
60061;BME280;45933;51.336;12.612;2023-10-09T08:11:37;100042.63;;;15.19;68.63
60061;BME280;45933;51.336;12.612;2023-10-09T08:14:07;100054.72;;;15.24;69.13
60061;BME280;45933;51.336;12.612;2023-10-09T08:16:54;100059.88;;;15.27;69.01
60061;BME280;45933;51.336;12.612;2023-10-09T08:19:38;100066.03;;;15.26;68.93
60061;BME280;45933;51.336;12.612;2023-10-09T08:22:21;100082.59;;;15.30;69.42
60061;BME280;45933;51.336;12.612;2023-10-09T08:24:48;100081.63;;;15.32;68.38
60061;BME280;45933;51.336;12.612;2023-10-09T08:27:28;100073.81;;;15.31;69.15
60061;BME280;45933;51.336;12.612;2023-10-09T08:29:58;100077.22;;;15.34;68.58
60061;BME280;45933;51.336;12.612;2023-10-09T08:32:42;100072.78;;;15.36;68.48
60061;BME280;45933;51.336;12.612;2023-10-09T08:35:09;100063.19;;;15.35;68.86
60061;BME280;45933;51.336;12.612;2023-10-09T08:37:53;100057.81;;;15.40;68.90
60061;BME280;45933;51.336;12.612;2023-10-09T08:40:28;100051.53;;;15.46;68.72
60061;BME280;45933;51.336;12.612;2023-10-09T08:43:05;100072.56;;;15.46;68.90
60061;BME280;45933;51.336;12.612;2023-10-09T08:45:36;100056.81;;;15.44;69.11
60061;BME280;45933;51.336;12.612;2023-10-09T08:48:08;100050.69;;;15.45;68.82
60061;BME280;45933;51.336;12.612;2023-10-09T08:50:37;100057.66;;;15.46;68.88
60061;BME280;45933;51.336;12.612;2023-10-09T08:53:03;100048.00;;;15.47;69.20
60061;BME280;45933;51.336;12.612;2023-10-09T08:55:29;100054.97;;;15.48;69.07
60061;BME280;45933;51.336;12.612;2023-10-09T08:57:54;100054.97;;;15.48;69.38
60061;BME280;45933;51.336;12.612;2023-10-09T09:00:22;100065.50;;;15.48;69.26
60061;BME280;45933;51.336;12.612;2023-10-09T09:02:58;100064.59;;;15.49;69.52
60061;BME280;45933;51.336;12.612;2023-10-09T09:05:25;100065.56;;;15.44;70.03
60061;BME280;45933;51.336;12.612;2023-10-09T09:07:54;100059.44;;;15.44;70.15
60061;BME280;45933;51.336;12.612;2023-10-09T09:10:27;100037.41;;;15.50;70.28
60061;BME280;45933;51.336;12.612;2023-10-09T09:13:02;100050.53;;;15.50;69.89
60061;BME280;45933;51.336;12.612;2023-10-09T09:15:29;100038.28;;;15.50;69.88
60061;BME280;45933;51.336;12.612;2023-10-09T09:18:08;100045.91;;;15.59;69.73
60061;BME280;45933;51.336;12.612;2023-10-09T09:20:37;100038.25;;;15.52;69.88
60061;BME280;45933;51.336;12.612;2023-10-09T09:23:05;100039.06;;;15.54;70.14
60061;BME280;45933;51.336;12.612;2023-10-09T09:25:45;100047.69;;;15.59;70.26
60061;BME280;45933;51.336;12.612;2023-10-09T09:28:12;100049.69;;;15.49;70.36
60061;BME280;45933;51.336;12.612;2023-10-09T09:30:38;100056.53;;;15.55;70.33
60061;BME280;45933;51.336;12.612;2023-10-09T09:33:26;100072.94;;;15.66;69.82
60061;BME280;45933;51.336;12.612;2023-10-09T09:36:02;100074.75;;;15.62;70.35
60061;BME280;45933;51.336;12.612;2023-10-09T09:38:31;100066.00;;;15.62;70.55
60061;BME280;45933;51.336;12.612;2023-10-09T09:41:07;100068.75;;;15.57;71.12
60061;BME280;45933;51.336;12.612;2023-10-09T09:43:34;100048.41;;;15.65;70.85
60061;BME280;45933;51.336;12.612;2023-10-09T09:46:02;100044.06;;;15.64;71.25
60061;BME280;45933;51.336;12.612;2023-10-09T09:48:39;100035.94;;;15.74;70.96
60061;BME280;45933;51.336;12.612;2023-10-09T09:51:12;100039.25;;;15.80;70.17
60061;BME280;45933;51.336;12.612;2023-10-09T09:53:40;100033.06;;;15.83;70.21
60061;BME280;45933;51.336;12.612;2023-10-09T09:56:06;100037.31;;;15.87;70.14
60061;BME280;45933;51.336;12.612;2023-10-09T09:58:32;100046.94;;;15.86;70.51
60061;BME280;45933;51.336;12.612;2023-10-09T10:01:08;100038.94;;;15.91;70.12
60061;BME280;45933;51.336;12.612;2023-10-09T10:03:54;100036.97;;;15.99;69.90
60061;BME280;45933;51.336;12.612;2023-10-09T10:06:23;100021.22;;;15.98;69.47
60061;BME280;45933;51.336;12.612;2023-10-09T10:08:52;100026.47;;;15.99;69.72
60061;BME280;45933;51.336;12.612;2023-10-09T10:11:42;100020.06;;;16.08;70.11
60061;BME280;45933;51.336;12.612;2023-10-09T10:14:13;100018.34;;;16.07;70.21
60061;BME280;45933;51.336;12.612;2023-10-09T10:22:30;100001.97;;;16.27;69.88
60061;BME280;45933;51.336;12.612;2023-10-09T10:24:56;99998.28;;;16.32;69.81
60061;BME280;45933;51.336;12.612;2023-10-09T10:27:34;99995.47;;;16.38;69.37
60061;BME280;45933;51.336;12.612;2023-10-09T10:35:23;99988.81;;;16.55;69.24
60061;BME280;45933;51.336;12.612;2023-10-09T10:38:32;99990.25;;;16.65;69.12
60061;BME280;45933;51.336;12.612;2023-10-09T10:41:16;99986.72;;;16.66;68.80
60061;BME280;45933;51.336;12.612;2023-10-09T10:43:43;99987.81;;;16.59;69.03
60061;BME280;45933;51.336;12.612;2023-10-09T10:46:18;99976.38;;;16.60;68.92
60061;BME280;45933;51.336;12.612;2023-10-09T10:48:56;99976.34;;;16.61;68.82
60061;BME280;45933;51.336;12.612;2023-10-09T10:51:34;99987.69;;;16.63;69.18
60061;BME280;45933;51.336;12.612;2023-10-09T10:54:03;99993.00;;;16.62;69.00
60061;BME280;45933;51.336;12.612;2023-10-09T10:56:47;99996.50;;;16.62;68.91
60061;BME280;45933;51.336;12.612;2023-10-09T10:59:13;100003.53;;;16.62;68.76
60061;BME280;45933;51.336;12.612;2023-10-09T11:01:39;100002.66;;;16.61;68.80
60061;BME280;45933;51.336;12.612;2023-10-09T11:04:24;100004.41;;;16.61;68.95
60061;BME280;45933;51.336;12.612;2023-10-09T11:06:59;100007.94;;;16.61;68.98
60061;BME280;45933;51.336;12.612;2023-10-09T11:09:46;99992.84;;;16.66;68.80
60061;BME280;45933;51.336;12.612;2023-10-09T11:12:50;99990.97;;;16.71;68.65
60061;BME280;45933;51.336;12.612;2023-10-09T11:15:31;99996.22;;;16.70;68.97
60061;BME280;45933;51.336;12.612;2023-10-09T11:18:04;99988.47;;;16.65;69.01
60061;BME280;45933;51.336;12.612;2023-10-09T11:20:37;99988.41;;;16.68;69.18
60061;BME280;45933;51.336;12.612;2023-10-09T11:23:04;99984.97;;;16.66;69.12
60061;BME280;45933;51.336;12.612;2023-10-09T11:25:36;99981.41;;;16.67;69.46
60061;BME280;45933;51.336;12.612;2023-10-09T11:28:22;99972.44;;;16.75;69.18
60061;BME280;45933;51.336;12.612;2023-10-09T11:31:08;99979.56;;;16.71;69.35
60061;BME280;45933;51.336;12.612;2023-10-09T11:33:49;99986.38;;;16.78;69.05
60061;BME280;45933;51.336;12.612;2023-10-09T11:36:17;99989.13;;;16.73;68.68
60061;BME280;45933;51.336;12.612;2023-10-09T11:38:43;99990.91;;;16.73;69.08
60061;BME280;45933;51.336;12.612;2023-10-09T11:41:17;100003.94;;;16.78;69.27
60061;BME280;45933;51.336;12.612;2023-10-09T11:43:49;100003.06;;;16.77;69.52
60061;BME280;45933;51.336;12.612;2023-10-09T11:46:19;100001.38;;;16.75;69.21
60061;BME280;45933;51.336;12.612;2023-10-09T11:49:13;99997.84;;;16.76;69.36
60061;BME280;45933;51.336;12.612;2023-10-09T11:51:44;99996.97;;;16.75;69.20
60061;BME280;45933;51.336;12.612;2023-10-09T11:54:30;99999.56;;;16.77;68.97
60061;BME280;45933;51.336;12.612;2023-10-09T11:56:56;100006.56;;;16.78;68.99
60061;BME280;45933;51.336;12.612;2023-10-09T11:59:22;99999.53;;;16.78;69.06
60061;BME280;45933;51.336;12.612;2023-10-09T12:01:48;100000.38;;;16.79;69.11
60061;BME280;45933;51.336;12.612;2023-10-09T12:04:18;99997.69;;;16.80;69.10
60061;BME280;45933;51.336;12.612;2023-10-09T12:06:44;100005.59;;;16.80;69.31
60061;BME280;45933;51.336;12.612;2023-10-09T12:09:09;100002.03;;;16.81;68.90
60061;BME280;45933;51.336;12.612;2023-10-09T12:11:41;99999.38;;;16.83;69.33
60061;BME280;45933;51.336;12.612;2023-10-09T12:14:07;100000.25;;;16.83;69.04
60061;BME280;45933;51.336;12.612;2023-10-09T12:16:32;100004.53;;;16.86;69.09
60061;BME280;45933;51.336;12.612;2023-10-09T12:18:58;100001.91;;;16.86;68.63
60061;BME280;45933;51.336;12.612;2023-10-09T12:21:24;100000.09;;;16.88;68.65
60061;BME280;45933;51.336;12.612;2023-10-09T12:23:53;100006.22;;;16.88;68.96
60061;BME280;45933;51.336;12.612;2023-10-09T12:26:22;100006.16;;;16.90;68.78
60061;BME280;45933;51.336;12.612;2023-10-09T12:28:48;100008.72;;;16.91;68.71
60061;BME280;45933;51.336;12.612;2023-10-09T12:31:15;99997.34;;;16.91;69.25
60061;BME280;45933;51.336;12.612;2023-10-09T12:33:44;99995.56;;;16.91;68.88
60061;BME280;45933;51.336;12.612;2023-10-09T12:36:12;99993.84;;;16.90;69.09
60061;BME280;45933;51.336;12.612;2023-10-09T12:38:45;99997.34;;;16.91;69.27
60061;BME280;45933;51.336;12.612;2023-10-09T12:41:15;99989.44;;;16.91;69.10
60061;BME280;45933;51.336;12.612;2023-10-09T12:43:50;99991.16;;;16.92;69.58
60061;BME280;45933;51.336;12.612;2023-10-09T12:46:17;99985.00;;;16.93;69.43
60061;BME280;45933;51.336;12.612;2023-10-09T12:48:43;99991.13;;;16.93;69.43
60061;BME280;45933;51.336;12.612;2023-10-09T12:51:12;99989.34;;;16.94;69.36
60061;BME280;45933;51.336;12.612;2023-10-09T12:53:45;99997.19;;;16.95;69.39
60061;BME280;45933;51.336;12.612;2023-10-09T12:56:11;99992.78;;;16.96;69.24
60061;BME280;45933;51.336;12.612;2023-10-09T12:58:40;99989.28;;;16.95;69.18
60061;BME280;45933;51.336;12.612;2023-10-09T13:01:17;99990.16;;;16.96;69.39
60061;BME280;45933;51.336;12.612;2023-10-09T13:03:44;99990.22;;;16.94;69.18
60061;BME280;45933;51.336;12.612;2023-10-09T13:06:14;99988.50;;;16.93;69.27
60061;BME280;45933;51.336;12.612;2023-10-09T13:08:40;99985.00;;;16.93;69.39
60061;BME280;45933;51.336;12.612;2023-10-09T13:11:07;99977.97;;;16.93;69.59
60061;BME280;45933;51.336;12.612;2023-10-09T13:13:40;99980.53;;;16.95;69.89
60061;BME280;45933;51.336;12.612;2023-10-09T13:16:14;99973.44;;;16.97;69.68
60061;BME280;45933;51.336;12.612;2023-10-09T13:18:58;99971.56;;;17.01;69.68
60061;BME280;45933;51.336;12.612;2023-10-09T13:21:26;99969.09;;;16.96;69.73
60061;BME280;45933;51.336;12.612;2023-10-09T13:23:51;99976.06;;;16.97;69.91
60061;BME280;45933;51.336;12.612;2023-10-09T13:26:22;99975.22;;;16.96;70.02
60061;BME280;45933;51.336;12.612;2023-10-09T13:28:55;99965.53;;;16.97;69.82